createdAt,value
2022-12-27T00:00:09.537Z,94105.12
2022-12-27T00:02:41.473Z,94109.84
2022-12-27T00:05:10.531Z,94111.56
2022-12-27T00:07:37.956Z,94117.84
2022-12-27T00:10:08.196Z,94105.19
2022-12-27T00:12:37.757Z,94121.22
2022-12-27T00:15:05.797Z,94103.75
2022-12-27T00:17:33.153Z,94103.53
2022-12-27T00:20:05.360Z,94102.09
2022-12-27T00:22:39.277Z,94103.09
2022-12-27T00:25:07.441Z,94091.66
2022-12-27T00:27:34.738Z,94106.28
2022-12-27T00:30:02.155Z,94101.34
2022-12-27T00:32:29.746Z,94100.06
2022-12-27T00:34:57.057Z,94102.09
2022-12-27T00:37:24.424Z,94092.28
2022-12-27T00:39:52.127Z,94085.00
2022-12-27T00:42:19.572Z,94090.75
2022-12-27T00:44:47.152Z,94089.22
2022-12-27T00:47:14.840Z,94089.31
2022-12-27T00:49:42.158Z,94089.25
2022-12-27T00:52:09.366Z,94093.75
2022-12-27T00:54:37.162Z,94089.88
2022-12-27T00:57:04.640Z,94092.63
2022-12-27T00:59:32.075Z,94090.44
2022-12-27T01:02:00.166Z,94099.06
2022-12-27T01:04:27.663Z,94093.22
2022-12-27T01:06:54.902Z,94096.44
2022-12-27T01:09:22.508Z,94107.44
2022-12-27T01:11:50.162Z,94092.84
2022-12-27T01:14:17.864Z,94103.91
2022-12-27T01:16:45.776Z,94096.53
2022-12-27T01:19:16.129Z,94101.47
2022-12-27T01:21:43.633Z,94100.81
2022-12-27T01:24:11.339Z,94104.97
2022-12-27T01:26:38.680Z,94107.38
2022-12-27T01:29:06.040Z,94096.81
2022-12-27T01:31:33.774Z,94106.94
2022-12-27T01:34:01.270Z,94102.31
2022-12-27T01:36:30.176Z,94107.31
2022-12-27T01:38:59.276Z,94097.41
2022-12-27T01:41:54.611Z,94109.84
2022-12-27T01:44:41.065Z,94104.59
2022-12-27T01:47:20.617Z,94096.16
2022-12-27T01:49:57.244Z,94086.28
2022-12-27T01:52:34.882Z,94088.94
2022-12-27T01:55:10.843Z,94081.50
2022-12-27T01:57:38.848Z,94074.97
2022-12-27T02:00:07.313Z,94085.87
2022-12-27T02:02:35.617Z,94081.06
2022-12-27T02:05:03.720Z,94084.69
2022-12-27T02:07:47.705Z,94075.88
2022-12-27T02:10:16.680Z,94087.03
2022-12-27T02:12:44.426Z,94074.31
2022-12-27T02:15:11.975Z,94080.13
2022-12-27T02:17:39.663Z,94087.91
2022-12-27T02:20:17.560Z,94087.91
2022-12-27T02:23:03.704Z,94089.13
2022-12-27T02:25:40.151Z,94081.28
2022-12-27T02:28:20.091Z,94089.62
2022-12-27T02:30:49.983Z,94081.59
2022-12-27T02:33:22.926Z,94084.22
2022-12-27T02:36:03.666Z,94074.09
2022-12-27T02:38:36.394Z,94076.50
2022-12-27T02:41:25.900Z,94072.59
2022-12-27T02:44:14.116Z,94083.41
2022-12-27T02:47:01.666Z,94092.88
2022-12-27T02:49:50.951Z,94094.09
2022-12-27T02:52:39.652Z,94086.13
2022-12-27T02:55:30.498Z,94078.37
2022-12-27T02:58:26.163Z,94091.00
2022-12-27T03:01:36.640Z,94099.31
2022-12-27T03:04:10.127Z,94088.25
2022-12-27T03:07:07.913Z,94087.41
2022-12-27T03:10:06.527Z,94085.00
2022-12-27T03:12:55.726Z,94086.19
2022-12-27T03:15:44.688Z,94089.81
2022-12-27T03:18:18.485Z,94100.00
2022-12-27T03:21:07.393Z,94086.53
2022-12-27T03:23:55.427Z,94099.75
2022-12-27T03:26:26.677Z,94091.34
2022-12-27T03:29:16.799Z,94085.34
2022-12-27T03:32:08.411Z,94094.94
2022-12-27T03:34:41.073Z,94081.28
2022-12-27T03:37:34.731Z,94087.06
2022-12-27T03:40:18.783Z,94098.62
2022-12-27T03:43:13.678Z,94097.69
2022-12-27T03:46:14.491Z,94097.62
2022-12-27T03:49:11.965Z,94097.62
2022-12-27T03:52:18.296Z,94098.62
2022-12-27T03:54:48.731Z,94103.66
2022-12-27T03:57:23.388Z,94102.88
2022-12-27T03:59:50.651Z,94099.03
2022-12-27T04:02:18.787Z,94106.03
2022-12-27T04:04:46.652Z,94087.75
2022-12-27T04:07:14.390Z,94105.44
2022-12-27T04:10:00.810Z,94105.28
2022-12-27T04:12:47.627Z,94103.53
2022-12-27T04:15:33.754Z,94107.03
2022-12-27T04:18:19.922Z,94106.25
2022-12-27T04:21:06.073Z,94107.78
2022-12-27T04:23:52.337Z,94108.66
2022-12-27T04:26:38.057Z,94116.03
2022-12-27T04:29:24.534Z,94113.06
2022-12-27T04:32:10.642Z,94107.56
2022-12-27T04:34:44.139Z,94119.66
2022-12-27T04:37:20.931Z,94121.44
2022-12-27T04:40:07.212Z,94129.81
2022-12-27T04:42:53.603Z,94118.44
2022-12-27T04:45:40.327Z,94124.03
2022-12-27T04:48:32.224Z,94121.66
2022-12-27T04:51:19.374Z,94135.97
2022-12-27T04:54:05.445Z,94127.41
2022-12-27T04:56:33.736Z,94137.06
2022-12-27T04:59:19.940Z,94133.50
2022-12-27T05:02:04.498Z,94141.69
2022-12-27T05:04:37.968Z,94149.34
2022-12-27T05:07:28.291Z,94135.59
2022-12-27T05:10:15.821Z,94154.69
2022-12-27T05:13:02.573Z,94140.31
2022-12-27T05:15:30.086Z,94153.75
2022-12-27T05:17:58.300Z,94145.59
2022-12-27T05:20:25.932Z,94154.81
2022-12-27T05:23:11.696Z,94144.56
2022-12-27T05:25:44.065Z,94152.22
2022-12-27T05:28:12.350Z,94146.03
2022-12-27T05:30:42.650Z,94147.81
2022-12-27T05:33:10.082Z,94156.78
2022-12-27T05:35:37.821Z,94133.59
2022-12-27T05:38:05.691Z,94160.28
2022-12-27T05:40:33.273Z,94145.88
2022-12-27T05:43:03.699Z,94146.22
2022-12-27T05:45:31.561Z,94143.50
2022-12-27T05:48:00.925Z,94134.09
2022-12-27T05:50:28.222Z,94132.87
2022-12-27T05:53:10.738Z,94131.13
2022-12-27T05:55:38.165Z,94131.00
2022-12-27T05:58:06.763Z,94129.31
2022-12-27T06:00:34.604Z,94133.34
2022-12-27T06:03:03.592Z,94126.53
2022-12-27T06:05:31.088Z,94129.16
2022-12-27T06:07:58.795Z,94125.75
2022-12-27T06:10:27.826Z,94114.91
2022-12-27T06:12:55.241Z,94117.91
2022-12-27T06:15:22.893Z,94125.00
2022-12-27T06:17:50.592Z,94125.91
2022-12-27T06:20:18.231Z,94137.28
2022-12-27T06:22:45.967Z,94141.59
2022-12-27T06:25:14.518Z,94136.69
2022-12-27T06:27:42.343Z,94149.84
2022-12-27T06:30:12.387Z,94141.13
2022-12-27T06:32:40.106Z,94143.34
2022-12-27T06:35:07.817Z,94132.19
2022-12-27T06:37:35.193Z,94147.09
2022-12-27T06:40:03.047Z,94142.06
2022-12-27T06:42:31.119Z,94153.72
2022-12-27T06:44:58.494Z,94124.87
2022-12-27T06:47:26.319Z,94142.44
2022-12-27T06:49:53.682Z,94137.78
2022-12-27T06:52:22.893Z,94140.94
2022-12-27T06:54:50.584Z,94147.13
2022-12-27T06:57:18.005Z,94135.00
2022-12-27T06:59:49.509Z,94140.84
2022-12-27T07:02:21.741Z,94134.88
2022-12-27T07:04:49.167Z,94134.31
2022-12-27T07:07:16.534Z,94142.13
2022-12-27T07:09:44.232Z,94141.88
2022-12-27T07:12:11.697Z,94128.31
2022-12-27T07:14:39.180Z,94128.31
2022-12-27T07:17:06.884Z,94131.41
2022-12-27T07:19:34.379Z,94129.78
2022-12-27T07:22:01.770Z,94126.25
2022-12-27T07:24:32.426Z,94133.16
2022-12-27T07:27:02.016Z,94135.38
2022-12-27T07:29:29.667Z,94134.69
2022-12-27T07:31:58.452Z,94120.50
2022-12-27T07:34:26.370Z,94127.69
2022-12-27T07:36:54.164Z,94128.09
2022-12-27T07:39:21.470Z,94115.78
2022-12-27T07:41:48.893Z,94120.38
2022-12-27T07:44:19.043Z,94118.38
2022-12-27T07:46:46.382Z,94113.81
2022-12-27T07:49:17.558Z,94105.94
2022-12-27T07:51:46.057Z,94097.62
2022-12-27T07:54:13.455Z,94094.03
2022-12-27T07:56:40.883Z,94105.97
2022-12-27T07:59:13.062Z,94104.22
2022-12-27T08:01:59.501Z,94090.47
2022-12-27T08:04:27.372Z,94093.25
2022-12-27T08:07:16.846Z,94089.44
2022-12-27T08:09:46.499Z,94082.62
2022-12-27T08:12:15.480Z,94098.81
2022-12-27T08:14:43.257Z,94088.50
2022-12-27T08:17:18.674Z,94083.62
2022-12-27T08:19:47.227Z,94083.84
2022-12-27T08:22:15.654Z,94079.06
2022-12-27T08:24:44.122Z,94084.78
2022-12-27T08:27:12.482Z,94078.66
2022-12-27T08:29:40.228Z,94093.66
2022-12-27T08:32:07.640Z,94098.75
2022-12-27T08:34:34.946Z,94103.94
2022-12-27T08:37:02.732Z,94093.81
2022-12-27T08:39:30.449Z,94085.38
2022-12-27T08:41:57.799Z,94102.69
2022-12-27T08:44:27.499Z,94088.75
2022-12-27T08:46:54.719Z,94087.88
2022-12-27T08:49:22.786Z,94099.38
2022-12-27T08:51:50.464Z,94076.31
2022-12-27T08:54:17.845Z,94081.06
2022-12-27T08:56:45.270Z,94090.53
2022-12-27T08:59:13.129Z,94083.28
2022-12-27T09:01:40.628Z,94085.31
2022-12-27T09:04:08.123Z,94086.56
2022-12-27T09:06:35.843Z,94069.09
2022-12-27T09:09:03.254Z,94073.28
2022-12-27T09:11:35.444Z,94080.59
2022-12-27T09:14:05.737Z,94069.47
2022-12-27T09:16:34.391Z,94068.28
2022-12-27T09:19:02.595Z,94064.31
2022-12-27T09:21:32.287Z,94062.72
2022-12-27T09:23:59.567Z,94060.50
2022-12-27T09:26:29.474Z,94076.34
2022-12-27T09:28:58.351Z,94046.34
2022-12-27T09:31:26.544Z,94057.91
2022-12-27T09:33:54.387Z,94057.78
2022-12-27T09:36:25.260Z,94053.59
2022-12-27T09:38:54.350Z,94033.37
2022-12-27T09:44:53.050Z,94034.44
2022-12-27T09:47:24.208Z,94031.09
2022-12-27T09:49:57.250Z,94039.25
2022-12-27T09:52:54.829Z,94030.28
2022-12-27T09:55:46.181Z,94029.78
2022-12-27T09:58:25.645Z,94029.53
2022-12-27T10:00:53.376Z,94035.56
2022-12-27T10:03:26.041Z,94018.34
2022-12-27T10:06:18.568Z,94021.28
2022-12-27T10:09:12.604Z,94021.72
2022-12-27T10:11:45.388Z,94007.94
2022-12-27T10:14:24.858Z,94003.94
2022-12-27T10:17:01.034Z,94001.16
2022-12-27T10:19:41.143Z,93994.53
2022-12-27T10:22:25.622Z,93989.06
2022-12-27T10:25:00.909Z,93981.81
2022-12-27T10:27:30.073Z,93987.09
2022-12-27T10:29:59.524Z,93979.91
2022-12-27T10:32:27.509Z,93982.00
2022-12-27T10:35:01.464Z,93973.00
2022-12-27T10:37:29.494Z,93963.53
2022-12-27T10:40:16.440Z,93955.44
2022-12-27T10:42:53.400Z,93958.53
2022-12-27T10:45:33.690Z,93941.94
2022-12-27T10:48:21.174Z,93938.97
2022-12-27T10:50:53.883Z,93940.72
2022-12-27T10:53:33.144Z,93943.09
2022-12-27T10:56:16.953Z,93937.19
2022-12-27T10:58:56.555Z,93935.78
2022-12-27T11:01:30.530Z,93931.81
2022-12-27T11:04:21.952Z,93938.16
2022-12-27T11:07:13.573Z,93937.75
2022-12-27T11:09:50.867Z,93933.47
2022-12-27T11:12:32.408Z,93921.25
2022-12-27T11:15:13.956Z,93910.00
2022-12-27T11:17:52.269Z,93910.56
2022-12-27T11:20:23.254Z,93909.19
2022-12-27T11:22:56.722Z,93914.28
2022-12-27T11:25:27.194Z,93906.97
2022-12-27T11:28:06.901Z,93902.06
2022-12-27T11:30:40.366Z,93907.34
2022-12-27T11:33:25.204Z,93912.16
2022-12-27T11:35:56.072Z,93906.84
2022-12-27T11:38:26.739Z,93910.50
2022-12-27T11:41:00.399Z,93908.56
2022-12-27T11:43:33.563Z,93909.59
2022-12-27T11:46:05.942Z,93913.19
2022-12-27T11:48:45.588Z,93921.50
2022-12-27T11:51:38.407Z,93919.75
2022-12-27T11:54:33.075Z,93921.97
2022-12-27T11:57:17.732Z,93923.00
2022-12-27T11:59:54.454Z,93926.97
2022-12-27T12:02:40.563Z,93927.16
2022-12-27T12:05:27.402Z,93922.69
2022-12-27T12:08:16.061Z,93929.56
2022-12-27T12:10:53.527Z,93931.16
2022-12-27T12:13:38.961Z,93933.75
2022-12-27T12:16:23.952Z,93925.25
2022-12-27T12:19:21.724Z,93938.53
2022-12-27T12:22:10.377Z,93933.47
2022-12-27T12:25:10.072Z,93937.62
2022-12-27T12:27:43.797Z,93943.31
2022-12-27T12:30:27.322Z,93939.91
2022-12-27T12:33:03.738Z,93942.97
2022-12-27T12:36:06.833Z,93937.62
2022-12-27T12:38:49.071Z,93939.72
2022-12-27T12:41:44.140Z,93941.22
2022-12-27T12:44:21.477Z,93951.66
2022-12-27T12:47:21.125Z,93956.37
2022-12-27T12:49:55.003Z,93958.94
2022-12-27T12:52:41.901Z,93965.63
2022-12-27T12:55:32.150Z,93971.28
2022-12-27T12:58:40.300Z,93972.16
2022-12-27T13:02:01.513Z,93969.41
2022-12-27T13:04:51.807Z,93967.91
2022-12-27T13:07:27.382Z,93970.91
2022-12-27T13:10:32.244Z,93976.75
2022-12-27T13:13:23.402Z,93978.97
2022-12-27T13:16:13.943Z,93985.06
2022-12-27T13:18:48.358Z,93986.78
2022-12-27T13:21:40.771Z,93981.66
2022-12-27T13:24:42.773Z,93990.56
2022-12-27T13:27:25.620Z,93995.81
2022-12-27T13:30:24.924Z,94000.38
2022-12-27T13:33:23.424Z,94002.81
2022-12-27T13:36:00.523Z,94010.13
2022-12-27T13:38:54.049Z,94013.31
2022-12-27T13:41:31.006Z,94013.53
2022-12-27T13:44:20.270Z,94024.91
2022-12-27T13:46:56.636Z,94024.91
2022-12-27T13:49:55.476Z,94024.09
2022-12-27T13:52:59.215Z,94034.94
2022-12-27T13:56:14.870Z,94039.28
2022-12-27T13:59:06.184Z,94041.44
2022-12-27T14:01:46.483Z,94049.88
2022-12-27T14:04:23.801Z,94043.63
2022-12-27T14:07:14.409Z,94046.75
2022-12-27T14:10:11.807Z,94041.16
2022-12-27T14:13:06.890Z,94048.00
2022-12-27T14:15:37.858Z,94052.41
2022-12-27T14:18:48.482Z,94059.56
2022-12-27T14:21:28.429Z,94050.25
2022-12-27T14:24:08.269Z,94048.34
2022-12-27T14:27:13.650Z,94048.44
2022-12-27T14:30:12.093Z,94047.75
2022-12-27T14:33:17.062Z,94051.50
2022-12-27T14:36:10.068Z,94054.34
2022-12-27T14:38:48.139Z,94063.28
2022-12-27T14:41:57.779Z,94062.66
2022-12-27T14:44:57.721Z,94061.66
2022-12-27T14:47:28.022Z,94069.50
2022-12-27T14:50:14.565Z,94069.09
2022-12-27T14:53:14.555Z,94070.66
2022-12-27T14:55:45.115Z,94075.75
2022-12-27T14:58:18.554Z,94073.28
2022-12-27T15:01:09.560Z,94083.06
2022-12-27T15:04:14.170Z,94082.47
2022-12-27T15:07:11.316Z,94079.72
2022-12-27T15:09:44.613Z,94079.25
2022-12-27T15:12:35.114Z,94082.97
2022-12-27T15:15:27.381Z,94085.87
2022-12-27T15:17:55.080Z,94083.03
2022-12-27T15:20:33.868Z,94085.44
2022-12-27T15:23:04.422Z,94095.91
2022-12-27T15:25:59.234Z,94085.03
2022-12-27T15:29:06.977Z,94086.25
2022-12-27T15:31:46.454Z,94090.53
2022-12-27T15:34:47.080Z,94101.25
2022-12-27T15:37:45.931Z,94087.59
2022-12-27T15:40:38.894Z,94100.84
2022-12-27T15:43:29.505Z,94103.75
2022-12-27T15:46:36.391Z,94105.88
2022-12-27T15:49:13.152Z,94099.72
2022-12-27T15:51:54.378Z,94099.34
2022-12-27T15:54:53.632Z,94102.69
2022-12-27T15:57:37.075Z,94106.63
2022-12-27T16:00:14.925Z,94116.66
2022-12-27T16:02:48.797Z,94113.56
2022-12-27T16:05:19.379Z,94115.31
2022-12-27T16:07:50.403Z,94120.38
2022-12-27T16:10:36.359Z,94114.31
2022-12-27T16:13:10.774Z,94114.16
2022-12-27T16:15:44.999Z,94107.38
2022-12-27T16:18:21.842Z,94112.69
2022-12-27T16:21:01.964Z,94112.25
2022-12-27T16:24:04.018Z,94111.97
2022-12-27T16:26:34.690Z,94121.22
2022-12-27T16:29:06.964Z,94110.63
2022-12-27T16:31:41.860Z,94111.72
2022-12-27T16:34:20.820Z,94119.91
2022-12-27T16:36:50.056Z,94114.12
2022-12-27T16:39:57.486Z,94117.84
2022-12-27T16:42:54.233Z,94116.22
2022-12-27T16:45:40.084Z,94113.78
2022-12-27T16:48:42.681Z,94113.47
2022-12-27T16:51:19.506Z,94114.50
2022-12-27T16:54:24.231Z,94113.12
2022-12-27T16:57:15.633Z,94111.13
2022-12-27T16:59:56.741Z,94108.72
2022-12-27T17:02:45.281Z,94118.97
2022-12-27T17:05:15.939Z,94114.16
2022-12-27T17:07:56.202Z,94124.37
2022-12-27T17:10:33.081Z,94118.78
2022-12-27T17:13:28.895Z,94115.56
2022-12-27T17:16:05.475Z,94113.75
2022-12-27T17:18:48.626Z,94120.75
2022-12-27T17:21:36.511Z,94125.72
2022-12-27T17:24:18.986Z,94137.34
2022-12-27T17:27:15.173Z,94142.28
2022-12-27T17:30:02.988Z,94139.47
2022-12-27T17:32:52.344Z,94149.06
2022-12-27T17:35:33.638Z,94143.69
2022-12-27T17:38:28.449Z,94155.31
2022-12-27T17:41:07.936Z,94145.72
2022-12-27T17:43:59.165Z,94152.50
2022-12-27T17:46:42.107Z,94160.72
2022-12-27T17:49:11.027Z,94163.94
2022-12-27T17:52:02.310Z,94169.72
2022-12-27T17:54:48.894Z,94160.69
2022-12-27T17:57:38.243Z,94168.22
2022-12-27T18:00:07.176Z,94179.19
2022-12-27T18:02:40.875Z,94176.41
2022-12-27T18:05:15.146Z,94180.66
2022-12-27T18:07:44.518Z,94172.63
2022-12-27T18:10:27.990Z,94177.81
2022-12-27T18:12:59.389Z,94178.16
2022-12-27T18:15:30.831Z,94172.91
2022-12-27T18:18:09.141Z,94171.66
2022-12-27T18:20:38.797Z,94176.06
2022-12-27T18:23:06.321Z,94170.84
2022-12-27T18:25:37.791Z,94172.63
2022-12-27T18:28:16.613Z,94174.03
2022-12-27T18:31:03.108Z,94185.53
2022-12-27T18:33:45.287Z,94188.28
2022-12-27T18:36:22.603Z,94192.06
2022-12-27T18:39:20.409Z,94191.41
2022-12-27T18:41:52.779Z,94184.72
2022-12-27T18:44:48.728Z,94180.50
2022-12-27T18:47:27.171Z,94184.47
2022-12-27T18:50:01.449Z,94185.66
2022-12-27T18:52:34.975Z,94190.09
2022-12-27T18:55:27.004Z,94189.19
2022-12-27T18:58:33.945Z,94205.81
2022-12-27T19:01:05.968Z,94214.72
2022-12-27T19:03:40.251Z,94221.53
2022-12-27T19:06:12.762Z,94223.00
2022-12-27T19:09:13.697Z,94225.84
2022-12-27T19:12:00.079Z,94217.81
2022-12-27T19:14:43.493Z,94223.41
2022-12-27T19:17:23.623Z,94221.00
2022-12-27T19:19:56.921Z,94213.22
2022-12-27T19:22:48.332Z,94221.19
2022-12-27T19:25:20.590Z,94219.31
2022-12-27T19:28:12.097Z,94215.66
2022-12-27T19:30:45.315Z,94216.44
2022-12-27T19:33:25.389Z,94220.03
2022-12-27T19:35:54.246Z,94219.84
2022-12-27T19:38:25.152Z,94224.59
2022-12-27T19:41:01.271Z,94224.78
2022-12-27T19:43:38.578Z,94236.06
2022-12-27T19:46:06.121Z,94234.56
2022-12-27T19:48:34.104Z,94240.16
2022-12-27T19:51:01.600Z,94247.59
2022-12-27T19:53:32.882Z,94246.97
2022-12-27T19:56:03.067Z,94251.78
2022-12-27T19:58:31.226Z,94258.19
2022-12-27T20:00:59.099Z,94262.94
2022-12-27T20:03:27.406Z,94269.97
2022-12-27T20:06:13.723Z,94273.22
2022-12-27T20:08:46.220Z,94261.31
2022-12-27T20:11:19.632Z,94255.81
2022-12-27T20:13:49.005Z,94268.72
2022-12-27T20:16:19.403Z,94265.81
2022-12-27T20:18:47.740Z,94265.06
2022-12-27T20:21:17.393Z,94265.84
2022-12-27T20:23:45.978Z,94270.50
2022-12-27T20:26:17.899Z,94267.50
2022-12-27T20:28:45.533Z,94267.78
2022-12-27T20:31:15.623Z,94269.28
2022-12-27T20:33:43.855Z,94266.53
2022-12-27T20:36:12.253Z,94269.97
2022-12-27T20:38:39.903Z,94272.94
2022-12-27T20:41:09.780Z,94282.34
2022-12-27T20:43:37.443Z,94284.13
2022-12-27T20:46:06.629Z,94282.66
2022-12-27T20:48:38.209Z,94282.22
2022-12-27T20:51:10.696Z,94285.53
2022-12-27T20:53:38.359Z,94288.22
2022-12-27T20:56:06.835Z,94287.09
2022-12-27T20:58:34.921Z,94288.75
2022-12-27T21:01:10.357Z,94293.03
2022-12-27T21:03:38.302Z,94290.22
2022-12-27T21:06:11.483Z,94292.25
2022-12-27T21:08:46.698Z,94298.41
2022-12-27T21:11:22.827Z,94296.88
2022-12-27T21:13:50.612Z,94291.56
2022-12-27T21:16:27.431Z,94296.78
2022-12-27T21:18:55.725Z,94295.38
2022-12-27T21:21:28.277Z,94306.41
2022-12-27T21:23:58.063Z,94310.13
2022-12-27T21:26:31.799Z,94316.47
2022-12-27T21:29:00.636Z,94320.31
2022-12-27T21:31:28.893Z,94319.00
2022-12-27T21:33:57.524Z,94319.62
2022-12-27T21:36:26.751Z,94310.88
2022-12-27T21:38:55.097Z,94311.12
2022-12-27T21:41:28.171Z,94313.09
2022-12-27T21:43:56.480Z,94317.13
2022-12-27T21:46:26.461Z,94324.09
2022-12-27T21:49:04.678Z,94320.50
2022-12-27T21:51:33.592Z,94330.19
2022-12-27T21:54:01.133Z,94332.16
2022-12-27T21:56:28.834Z,94330.69
2022-12-27T21:58:58.066Z,94342.47
2022-12-27T22:01:29.037Z,94339.75
2022-12-27T22:03:58.212Z,94336.66
2022-12-27T22:06:31.125Z,94343.78
2022-12-27T22:09:07.340Z,94342.66
2022-12-27T22:11:36.209Z,94335.38
2022-12-27T22:14:05.121Z,94337.00
2022-12-27T22:16:35.595Z,94345.59
2022-12-27T22:19:06.502Z,94346.19
2022-12-27T22:21:35.560Z,94349.12
2022-12-27T22:24:03.623Z,94344.13
2022-12-27T22:26:34.924Z,94341.06
2022-12-27T22:29:02.503Z,94346.88
2022-12-27T22:31:35.337Z,94341.50
2022-12-27T22:34:04.495Z,94340.56
2022-12-27T22:36:32.073Z,94346.41
2022-12-27T22:39:00.320Z,94343.31
2022-12-27T22:41:31.283Z,94334.75
2022-12-27T22:44:01.121Z,94334.09
2022-12-27T22:46:51.197Z,94333.47
2022-12-27T22:49:18.163Z,94334.75
2022-12-27T22:51:45.795Z,94342.50
2022-12-27T22:54:13.129Z,94341.03
2022-12-27T22:56:42.533Z,94337.50
2022-12-27T22:59:16.306Z,94342.81
2022-12-27T23:01:45.093Z,94336.66
2022-12-27T23:04:13.834Z,94329.22
2022-12-27T23:06:42.096Z,94336.34
2022-12-27T23:09:10.256Z,94333.59
2022-12-27T23:11:41.142Z,94332.63
2022-12-27T23:14:14.070Z,94332.50
2022-12-27T23:16:44.527Z,94335.25
2022-12-27T23:19:12.989Z,94326.50
2022-12-27T23:21:40.529Z,94332.97
2022-12-27T23:24:08.840Z,94324.44
2022-12-27T23:26:36.254Z,94322.63
2022-12-27T23:29:03.877Z,94326.66
2022-12-27T23:31:31.991Z,94320.31
2022-12-27T23:33:59.538Z,94322.78
2022-12-27T23:36:27.037Z,94319.69
2022-12-27T23:38:55.570Z,94317.59
2022-12-27T23:41:24.817Z,94312.56
2022-12-27T23:43:55.029Z,94311.62
2022-12-27T23:46:29.387Z,94318.25
2022-12-27T23:48:58.447Z,94313.41
2022-12-27T23:51:26.610Z,94310.62
2022-12-27T23:53:54.434Z,94301.28
2022-12-27T23:56:24.436Z,94297.88
2022-12-27T23:58:54.552Z,94296.62
